Time;durP1;ratioP1;P1;durP2;ratioP2;P2;SDS_P1;SDS_P2;PMS_P1;PMS_P2;Temp;Humidity;BMP_temperature;BMP_pressure;BME280_temperature;BME280_humidity;BME280_pressure;Samples;Min_cycle;Max_cycle;Signal;HPM_P1;HPM_P2
2021/03/20 00:01:21;;;;;;;18.38;10.23;;;;;;;;;;5092326;28;20027;-53
2021/03/20 00:03:47;;;;;;;19.73;11.10;;;;;;;;;;5092192;28;20024;-55
2021/03/20 00:06:15;;;;;;;22.20;12.48;;;;;;;;;;5092492;28;20024;-55
2021/03/20 00:08:42;;;;;;;23.02;12.48;;;;;;;;;;5092319;28;20062;-55
2021/03/20 00:11:08;;;;;;;22.67;13.02;;;;;;;;;;5092226;28;20016;-55
2021/03/20 00:13:34;;;;;;;23.85;12.63;;;;;;;;;;5092224;28;20034;-56
2021/03/20 00:16:01;;;;;;;23.42;13.38;;;;;;;;;;5092300;28;20080;-53
2021/03/20 00:18:28;;;;;;;23.50;12.68;;;;;;;;;;5092140;28;20024;-55
2021/03/20 00:20:55;;;;;;;20.45;12.15;;;;;;;;;;5092328;28;20423;-54
2021/03/20 00:23:21;;;;;;;19.95;11.20;;;;;;;;;;5092394;28;20371;-55
2021/03/20 00:25:47;;;;;;;20.15;10.65;;;;;;;;;;5092148;28;20032;-52
2021/03/20 00:28:21;;;;;;;18.00;9.63;;;;;;;;;;5092203;28;20032;-53
2021/03/20 00:30:48;;;;;;;16.25;9.73;;;;;;;;;;5092091;28;20035;-53
2021/03/20 00:33:14;;;;;;;17.90;10.50;;;;;;;;;;5092419;28;20408;-53
2021/03/20 00:35:40;;;;;;;18.90;11.10;;;;;;;;;;5092109;28;20028;-56
2021/03/20 00:38:06;;;;;;;19.50;10.75;;;;;;;;;;5092285;28;20035;-55
2021/03/20 00:40:32;;;;;;;20.77;11.32;;;;;;;;;;5091785;28;20073;-52
2021/03/20 00:42:59;;;;;;;19.05;11.48;;;;;;;;;;5092202;28;20497;-55
2021/03/20 00:45:26;;;;;;;17.73;10.68;;;;;;;;;;5092006;28;20024;-54
2021/03/20 00:47:53;;;;;;;18.10;10.25;;;;;;;;;;5092152;28;20070;-54
2021/03/20 00:50:20;;;;;;;17.65;10.18;;;;;;;;;;5091938;28;20031;-54
2021/03/20 00:52:46;;;;;;;18.25;10.90;;;;;;;;;;5091885;28;20059;-55
2021/03/20 00:55:13;;;;;;;16.20;9.68;;;;;;;;;;5091858;28;20035;-52
2021/03/20 00:57:39;;;;;;;16.90;9.82;;;;;;;;;;5091865;28;20107;-52
2021/03/20 01:00:10;;;;;;;17.52;9.90;;;;;;;;;;5092877;28;20020;-54
2021/03/20 01:02:36;;;;;;;19.20;11.15;;;;;;;;;;5095534;28;20024;-58
2021/03/20 01:05:02;;;;;;;20.77;11.35;;;;;;;;;;5095541;28;20034;-57
2021/03/20 01:07:28;;;;;;;19.25;10.68;;;;;;;;;;5095479;28;20374;-53
2021/03/20 01:09:55;;;;;;;22.75;12.10;;;;;;;;;;5095297;28;20073;-55
2021/03/20 01:12:21;;;;;;;22.55;13.02;;;;;;;;;;5095390;28;20367;-53
2021/03/20 01:14:47;;;;;;;22.75;12.13;;;;;;;;;;5095700;28;20103;-57
2021/03/20 01:17:13;;;;;;;20.83;11.45;;;;;;;;;;5095350;28;20028;-55
2021/03/20 01:19:39;;;;;;;24.85;11.00;;;;;;;;;;5095030;28;20032;-52
2021/03/20 01:22:05;;;;;;;18.23;10.38;;;;;;;;;;5095141;28;20024;-53
2021/03/20 01:24:31;;;;;;;18.42;10.00;;;;;;;;;;5095374;28;20115;-53
2021/03/20 01:26:57;;;;;;;20.35;11.52;;;;;;;;;;5094985;28;20028;-55
2021/03/20 01:29:23;;;;;;;21.58;11.82;;;;;;;;;;5095003;28;20093;-54
2021/03/20 01:31:51;;;;;;;23.02;12.15;;;;;;;;;;5095277;28;20409;-54
2021/03/20 01:34:17;;;;;;;22.52;11.68;;;;;;;;;;5095225;28;20061;-55
2021/03/20 01:36:43;;;;;;;18.90;10.60;;;;;;;;;;5094909;28;20459;-54
2021/03/20 01:39:09;;;;;;;23.50;11.95;;;;;;;;;;5094760;28;20028;-54
2021/03/20 01:41:36;;;;;;;22.55;12.10;;;;;;;;;;5094925;28;20394;-54
2021/03/20 01:44:02;;;;;;;23.00;11.75;;;;;;;;;;5094617;28;20035;-51
2021/03/20 01:46:37;;;;;;;23.80;11.77;;;;;;;;;;5094677;28;20103;-55
2021/03/20 01:49:15;;;;;;;23.92;12.00;;;;;;;;;;5094461;28;20032;-58
2021/03/20 01:51:42;;;;;;;19.90;11.60;;;;;;;;;;5094310;28;20039;-53
2021/03/20 01:54:08;;;;;;;19.88;11.00;;;;;;;;;;5094531;28;20028;-56
2021/03/20 01:56:42;;;;;;;19.23;11.30;;;;;;;;;;5094459;28;20085;-53
2021/03/20 01:59:08;;;;;;;19.92;10.90;;;;;;;;;;5094515;28;20027;-53
2021/03/20 02:01:36;;;;;;;18.85;11.05;;;;;;;;;;5094398;28;20126;-51
2021/03/20 02:04:02;;;;;;;18.35;11.43;;;;;;;;;;5094309;28;20089;-55
2021/03/20 02:06:28;;;;;;;21.10;12.27;;;;;;;;;;5094311;28;20479;-53
2021/03/20 02:08:58;;;;;;;19.95;11.20;;;;;;;;;;5094251;28;20111;-59
2021/03/20 02:11:37;;;;;;;20.30;11.80;;;;;;;;;;5094032;28;20055;-53
2021/03/20 02:14:12;;;;;;;19.40;11.30;;;;;;;;;;5094203;28;20364;-52
2021/03/20 02:16:38;;;;;;;17.60;9.90;;;;;;;;;;5093861;28;20024;-56
2021/03/20 02:19:17;;;;;;;18.13;10.90;;;;;;;;;;5093879;28;20108;-53
2021/03/20 02:21:53;;;;;;;17.65;10.80;;;;;;;;;;5094106;28;20020;-55
2021/03/20 02:24:37;;;;;;;18.92;10.75;;;;;;;;;;5094110;28;20032;-56
2021/03/20 02:27:15;;;;;;;17.98;10.23;;;;;;;;;;5093771;28;20112;-52
2021/03/20 02:29:47;;;;;;;21.52;11.40;;;;;;;;;;5093848;28;20375;-53
2021/03/20 02:32:26;;;;;;;19.73;10.88;;;;;;;;;;5093689;28;20380;-55
2021/03/20 02:35:07;;;;;;;19.40;11.82;;;;;;;;;;5093872;28;20099;-53
2021/03/20 02:37:36;;;;;;;19.00;10.35;;;;;;;;;;5093957;28;20035;-58
2021/03/20 02:40:10;;;;;;;19.70;11.40;;;;;;;;;;5093596;28;20032;-52
2021/03/20 02:42:46;;;;;;;18.52;10.48;;;;;;;;;;5093422;28;20020;-52
2021/03/20 02:45:31;;;;;;;20.15;10.80;;;;;;;;;;5093546;28;20042;-53
2021/03/20 02:47:58;;;;;;;21.17;12.13;;;;;;;;;;5093239;28;20021;-55
2021/03/20 02:50:29;;;;;;;20.92;11.70;;;;;;;;;;5093386;28;20028;-57
2021/03/20 02:53:05;;;;;;;20.25;11.02;;;;;;;;;;5092940;28;20048;-51
2021/03/20 02:55:33;;;;;;;15.82;9.52;;;;;;;;;;5093125;28;20028;-55
2021/03/20 02:58:05;;;;;;;19.65;10.75;;;;;;;;;;5092823;28;20042;-54
2021/03/20 03:00:35;;;;;;;21.33;10.95;;;;;;;;;;5093189;28;20070;-57
2021/03/20 03:03:02;;;;;;;17.65;10.85;;;;;;;;;;5093219;28;20024;-57
2021/03/20 03:08:12;;;;;;;17.67;10.77;;;;;;;;;;4631689;26;20137;-52
2021/03/20 03:10:43;;;;;;;16.60;9.82;;;;;;;;;;5012514;28;20133;-55
2021/03/20 03:13:24;;;;;;;17.27;10.77;;;;;;;;;;5012241;28;20037;-53
2021/03/20 03:15:55;;;;;;;18.63;10.90;;;;;;;;;;5012377;28;20017;-52
2021/03/20 03:18:26;;;;;;;17.08;10.43;;;;;;;;;;5012330;28;20032;-52
2021/03/20 03:20:55;;;;;;;16.13;10.07;;;;;;;;;;5012061;28;20083;-51
2021/03/20 03:23:25;;;;;;;19.58;11.32;;;;;;;;;;5011863;28;20084;-50
2021/03/20 03:26:05;;;;;;;17.60;10.38;;;;;;;;;;5012476;28;20029;-53
2021/03/20 03:28:31;;;;;;;18.27;11.27;;;;;;;;;;5012174;28;20026;-52
2021/03/20 03:30:59;;;;;;;19.52;11.00;;;;;;;;;;5012221;28;20025;-56
2021/03/20 03:33:25;;;;;;;20.40;11.93;;;;;;;;;;5012146;28;20034;-50
2021/03/20 03:35:53;;;;;;;19.55;11.10;;;;;;;;;;5012060;28;20471;-56
2021/03/20 03:38:25;;;;;;;21.33;11.77;;;;;;;;;;5011866;28;20022;-53
2021/03/20 03:41:10;;;;;;;19.15;10.88;;;;;;;;;;5011971;28;20025;-50
2021/03/20 03:43:36;;;;;;;18.08;10.75;;;;;;;;;;5011958;28;20041;-57
2021/03/20 03:46:03;;;;;;;23.00;12.40;;;;;;;;;;5011928;28;20026;-51
2021/03/20 03:48:29;;;;;;;23.75;11.82;;;;;;;;;;5012042;28;20022;-51
2021/03/20 03:50:56;;;;;;;24.77;12.32;;;;;;;;;;5011901;28;20032;-52
2021/03/20 03:53:29;;;;;;;24.98;13.15;;;;;;;;;;5011605;28;20042;-53
2021/03/20 03:55:58;;;;;;;32.78;15.23;;;;;;;;;;5011806;28;20108;-52
2021/03/20 03:58:24;;;;;;;34.08;13.98;;;;;;;;;;5011802;28;20060;-53
2021/03/20 04:00:55;;;;;;;27.35;13.38;;;;;;;;;;5011827;28;20213;-52
2021/03/20 04:03:27;;;;;;;31.65;15.15;;;;;;;;;;5011742;28;20133;-53
2021/03/20 04:05:54;;;;;;;29.23;13.88;;;;;;;;;;5011520;28;20026;-57
2021/03/20 04:08:38;;;;;;;34.92;14.60;;;;;;;;;;5011540;28;20030;-56
2021/03/20 04:11:23;;;;;;;37.08;15.00;;;;;;;;;;5011632;28;20032;-56
2021/03/20 04:13:52;;;;;;;33.60;14.68;;;;;;;;;;5011572;28;20034;-52
2021/03/20 04:16:20;;;;;;;32.05;13.55;;;;;;;;;;5011607;28;20030;-52
2021/03/20 04:19:05;;;;;;;27.88;13.30;;;;;;;;;;5011644;28;20026;-54
2021/03/20 04:21:49;;;;;;;25.90;12.48;;;;;;;;;;5011599;28;20025;-55
2021/03/20 04:24:27;;;;;;;23.55;11.88;;;;;;;;;;5011547;28;20109;-55
2021/03/20 04:26:53;;;;;;;25.95;13.15;;;;;;;;;;5011867;28;20041;-54
2021/03/20 04:29:31;;;;;;;29.23;14.02;;;;;;;;;;5011439;28;20049;-56
2021/03/20 04:32:00;;;;;;;28.90;13.43;;;;;;;;;;5011470;28;20022;-55
2021/03/20 04:34:38;;;;;;;28.55;13.52;;;;;;;;;;5011425;28;20551;-56
2021/03/20 04:37:06;;;;;;;31.02;13.90;;;;;;;;;;5015153;28;20018;-52
2021/03/20 04:39:35;;;;;;;25.27;13.20;;;;;;;;;;5015351;28;20026;-54
2021/03/20 04:42:01;;;;;;;27.13;13.13;;;;;;;;;;5015285;28;20033;-56
2021/03/20 04:44:27;;;;;;;26.65;14.50;;;;;;;;;;5015336;28;20428;-54
2021/03/20 04:46:54;;;;;;;31.40;15.80;;;;;;;;;;5015024;28;20029;-53
2021/03/20 04:49:39;;;;;;;29.00;14.00;;;;;;;;;;4997405;28;20377;-55
2021/03/20 04:52:25;;;;;;;30.55;14.98;;;;;;;;;;5014905;28;20054;-52
2021/03/20 04:54:51;;;;;;;29.30;15.13;;;;;;;;;;5008245;28;20061;-52
2021/03/20 04:57:36;;;;;;;28.20;15.32;;;;;;;;;;5014873;28;20076;-55
2021/03/20 05:00:14;;;;;;;25.48;13.52;;;;;;;;;;5015002;28;20026;-55
2021/03/20 05:02:43;;;;;;;25.48;13.82;;;;;;;;;;5014829;28;20076;-54
2021/03/20 05:05:15;;;;;;;26.05;13.02;;;;;;;;;;5014736;28;20053;-58
2021/03/20 05:07:41;;;;;;;23.05;12.30;;;;;;;;;;5014388;28;20451;-56
2021/03/20 05:10:10;;;;;;;27.60;13.77;;;;;;;;;;5014685;28;20481;-57
2021/03/20 05:12:36;;;;;;;29.00;14.40;;;;;;;;;;5014633;28;20112;-54
2021/03/20 05:15:14;;;;;;;23.45;12.63;;;;;;;;;;5014702;28;20480;-55
2021/03/20 05:17:40;;;;;;;23.08;13.13;;;;;;;;;;5014529;28;20026;-57
2021/03/20 05:20:07;;;;;;;22.05;12.98;;;;;;;;;;5014444;28;20058;-54
2021/03/20 05:22:33;;;;;;;23.65;13.18;;;;;;;;;;5014406;28;20018;-55
2021/03/20 05:25:00;;;;;;;27.17;15.73;;;;;;;;;;5014401;28;20072;-53
2021/03/20 05:27:29;;;;;;;22.70;12.98;;;;;;;;;;5014337;28;20057;-55
2021/03/20 05:29:55;;;;;;;22.80;12.98;;;;;;;;;;5014334;28;20097;-57
2021/03/20 05:32:29;;;;;;;21.48;13.20;;;;;;;;;;5014056;28;20049;-54
2021/03/20 05:34:56;;;;;;;23.63;14.07;;;;;;;;;;5014094;28;20037;-54
2021/03/20 05:37:24;;;;;;;39.83;18.83;;;;;;;;;;5014236;28;20373;-52
2021/03/20 05:39:50;;;;;;;47.95;19.23;;;;;;;;;;5014120;28;20026;-57
2021/03/20 05:42:22;;;;;;;40.63;19.35;;;;;;;;;;5014002;28;20037;-53
2021/03/20 05:44:55;;;;;;;39.80;21.38;;;;;;;;;;5013955;28;20029;-54
2021/03/20 05:47:39;;;;;;;36.90;20.27;;;;;;;;;;5013551;28;20030;-52
2021/03/20 05:50:24;;;;;;;28.70;16.63;;;;;;;;;;5014064;28;20025;-55
2021/03/20 05:52:50;;;;;;;24.08;14.10;;;;;;;;;;5013617;28;20148;-57
2021/03/20 05:55:32;;;;;;;24.20;15.35;;;;;;;;;;5013823;28;20527;-56
2021/03/20 05:58:04;;;;;;;28.98;15.90;;;;;;;;;;5013983;28;20030;-53
2021/03/20 06:00:49;;;;;;;31.88;17.08;;;;;;;;;;5013735;28;20033;-51
2021/03/20 06:03:15;;;;;;;24.27;14.38;;;;;;;;;;5013517;28;20121;-56
2021/03/20 06:05:52;;;;;;;26.17;15.60;;;;;;;;;;5013622;28;20025;-58
2021/03/20 06:08:24;;;;;;;23.83;14.52;;;;;;;;;;5013433;28;20033;-56
2021/03/20 06:11:17;;;;;;;24.77;15.65;;;;;;;;;;5013515;28;20061;-55
2021/03/20 06:14:00;;;;;;;24.17;14.95;;;;;;;;;;5011377;28;20046;-54
2021/03/20 06:16:26;;;;;;;23.33;14.90;;;;;;;;;;5013444;28;20101;-54
2021/03/20 06:18:55;;;;;;;23.92;14.32;;;;;;;;;;5013392;28;20022;-57
2021/03/20 06:21:21;;;;;;;23.08;14.20;;;;;;;;;;5013336;28;20557;-53
2021/03/20 06:23:59;;;;;;;28.10;16.88;;;;;;;;;;5013166;28;20030;-55
2021/03/20 06:26:36;;;;;;;31.83;18.33;;;;;;;;;;5013557;28;20033;-54
2021/03/20 06:29:17;;;;;;;31.02;17.92;;;;;;;;;;5013199;28;20025;-53
2021/03/20 06:31:48;;;;;;;32.72;18.33;;;;;;;;;;5013697;28;20030;-51
2021/03/20 06:34:17;;;;;;;35.30;20.30;;;;;;;;;;5012910;28;20033;-56
2021/03/20 06:36:45;;;;;;;35.47;19.85;;;;;;;;;;5013030;28;20029;-53
2021/03/20 06:39:28;;;;;;;32.45;17.90;;;;;;;;;;5013125;28;20552;-56
2021/03/20 06:41:59;;;;;;;34.72;18.80;;;;;;;;;;5012939;28;20018;-52
2021/03/20 06:44:28;;;;;;;28.23;17.00;;;;;;;;;;5013105;28;20018;-55
2021/03/20 06:46:54;;;;;;;28.15;16.35;;;;;;;;;;5012893;28;20026;-56
2021/03/20 06:49:33;;;;;;;26.08;15.68;;;;;;;;;;5012736;28;20026;-54
2021/03/20 06:52:01;;;;;;;32.67;18.13;;;;;;;;;;5012817;28;20026;-57
2021/03/20 06:54:28;;;;;;;29.33;18.00;;;;;;;;;;5012499;28;20041;-55
2021/03/20 06:56:54;;;;;;;32.85;17.55;;;;;;;;;;5012475;28;20554;-55
2021/03/20 06:59:22;;;;;;;26.95;17.05;;;;;;;;;;5012172;28;20037;-53
2021/03/20 07:02:00;;;;;;;29.80;16.75;;;;;;;;;;5012532;28;20028;-55
2021/03/20 07:04:42;;;;;;;35.25;19.70;;;;;;;;;;5012534;28;20044;-56
2021/03/20 07:07:20;;;;;;;37.35;20.27;;;;;;;;;;5012444;28;20050;-54
2021/03/20 07:09:47;;;;;;;41.22;23.00;;;;;;;;;;5012345;28;20022;-55
2021/03/20 07:12:19;;;;;;;48.92;26.52;;;;;;;;;;5012303;28;20026;-53
2021/03/20 07:14:46;;;;;;;51.50;27.67;;;;;;;;;;5012549;28;20029;-56
2021/03/20 07:17:26;;;;;;;50.22;26.77;;;;;;;;;;5012511;28;20029;-56
2021/03/20 07:19:56;;;;;;;46.58;24.70;;;;;;;;;;5012515;28;20113;-57
2021/03/20 07:22:31;;;;;;;50.13;25.40;;;;;;;;;;5012255;28;20404;-54
2021/03/20 07:24:57;;;;;;;43.88;24.65;;;;;;;;;;5012031;28;20030;-54
2021/03/20 07:27:30;;;;;;;41.38;22.80;;;;;;;;;;5012146;28;20033;-59
2021/03/20 07:30:01;;;;;;;36.17;21.33;;;;;;;;;;5012116;28;20046;-56
2021/03/20 07:32:27;;;;;;;39.70;20.58;;;;;;;;;;5012031;28;20033;-52
2021/03/20 07:34:56;;;;;;;41.15;23.33;;;;;;;;;;5012267;28;20080;-54
2021/03/20 07:37:24;;;;;;;34.40;20.95;;;;;;;;;;5012078;28;20045;-54
2021/03/20 07:39:58;;;;;;;37.58;20.80;;;;;;;;;;5011934;28;20327;-56
2021/03/20 07:42:27;;;;;;;33.97;19.73;;;;;;;;;;5012036;28;20029;-56
2021/03/20 07:44:56;;;;;;;46.65;25.58;;;;;;;;;;5012205;28;20033;-54
2021/03/20 07:47:24;;;;;;;44.25;26.75;;;;;;;;;;5012128;28;20076;-56
2021/03/20 07:50:05;;;;;;;39.65;23.90;;;;;;;;;;5012115;28;20028;-50
2021/03/20 07:52:31;;;;;;;39.97;24.45;;;;;;;;;;5011792;28;20473;-57
2021/03/20 07:55:08;;;;;;;40.22;21.95;;;;;;;;;;5011686;28;20026;-55
2021/03/20 07:57:34;;;;;;;47.05;27.63;;;;;;;;;;5011837;28;20026;-56
2021/03/20 08:00:01;;;;;;;50.63;28.30;;;;;;;;;;5012018;28;20072;-56
2021/03/20 08:02:33;;;;;;;45.85;26.17;;;;;;;;;;5011758;28;20030;-54
2021/03/20 08:05:18;;;;;;;51.70;27.13;;;;;;;;;;5011713;28;20022;-55
2021/03/20 08:07:49;;;;;;;45.83;25.90;;;;;;;;;;5011763;28;20046;-53
2021/03/20 08:10:27;;;;;;;45.25;25.52;;;;;;;;;;5014755;28;20026;-56
2021/03/20 08:13:19;;;;;;;45.03;24.23;;;;;;;;;;5015698;28;20042;-56
2021/03/20 08:15:51;;;;;;;35.97;20.60;;;;;;;;;;5000244;28;20070;-57
2021/03/20 08:18:20;;;;;;;44.10;22.92;;;;;;;;;;5015593;28;20022;-59
2021/03/20 08:21:00;;;;;;;45.13;25.20;;;;;;;;;;5015766;28;20022;-52
2021/03/20 08:23:33;;;;;;;50.10;29.20;;;;;;;;;;5015553;28;20029;-56
2021/03/20 08:26:02;;;;;;;53.92;28.48;;;;;;;;;;5016105;28;20034;-55
2021/03/20 08:28:45;;;;;;;47.28;26.52;;;;;;;;;;5016558;28;20033;-57
2021/03/20 08:31:13;;;;;;;46.22;26.02;;;;;;;;;;5015672;28;20105;-51
2021/03/20 08:33:46;;;;;;;40.80;23.15;;;;;;;;;;5015540;28;20030;-54
2021/03/20 08:36:15;;;;;;;47.00;25.80;;;;;;;;;;5015344;28;20351;-54
2021/03/20 08:38:58;;;;;;;41.00;22.67;;;;;;;;;;5015461;28;20416;-58
2021/03/20 08:41:39;;;;;;;41.72;23.85;;;;;;;;;;5015287;28;20100;-54
2021/03/20 08:44:17;;;;;;;41.05;24.65;;;;;;;;;;5015252;28;20037;-53
2021/03/20 08:46:48;;;;;;;37.03;21.25;;;;;;;;;;5015151;28;20084;-53
2021/03/20 08:49:26;;;;;;;39.00;21.77;;;;;;;;;;5015258;28;20025;-54
2021/03/20 08:51:53;;;;;;;44.05;24.42;;;;;;;;;;5015083;28;20030;-53
2021/03/20 08:54:37;;;;;;;38.22;22.35;;;;;;;;;;5014757;28;20061;-54
2021/03/20 08:57:03;;;;;;;36.67;21.83;;;;;;;;;;5014885;28;20084;-55
2021/03/20 08:59:53;;;;;;;42.72;24.27;;;;;;;;;;4997262;28;20030;-55
2021/03/20 09:02:25;;;;;;;44.45;26.17;;;;;;;;;;4992180;28;20096;-52
2021/03/20 09:04:53;;;;;;;45.13;26.08;;;;;;;;;;5014773;28;20056;-49
2021/03/20 09:07:21;;;;;;;37.28;22.77;;;;;;;;;;5014674;28;20049;-56
2021/03/20 09:09:51;;;;;;;35.47;20.60;;;;;;;;;;5014685;28;20496;-51
2021/03/20 09:12:18;;;;;;;43.50;24.80;;;;;;;;;;5014684;28;20033;-53
2021/03/20 09:14:45;;;;;;;36.63;21.33;;;;;;;;;;5014627;28;20100;-57
2021/03/20 09:17:16;;;;;;;39.13;24.65;;;;;;;;;;5014588;28;20084;-51
2021/03/20 09:19:51;;;;;;;42.38;24.20;;;;;;;;;;5014525;28;20037;-57
2021/03/20 09:22:20;;;;;;;45.05;24.88;;;;;;;;;;5013846;28;20044;-54
2021/03/20 09:24:57;;;;;;;40.50;22.63;;;;;;;;;;5014396;28;20068;-55
2021/03/20 09:27:42;;;;;;;38.30;23.52;;;;;;;;;;5014316;28;20022;-57
2021/03/20 09:30:27;;;;;;;41.10;24.08;;;;;;;;;;5014537;28;20373;-51
2021/03/20 09:32:53;;;;;;;33.95;20.85;;;;;;;;;;5014385;28;20448;-54
2021/03/20 09:35:46;;;;;;;44.42;25.83;;;;;;;;;;5014345;28;20088;-54
2021/03/20 09:38:13;;;;;;;42.80;25.17;;;;;;;;;;5012136;28;20042;-55
2021/03/20 09:40:41;;;;;;;38.33;23.40;;;;;;;;;;5013939;28;20065;-54
2021/03/20 09:43:39;;;;;;;36.33;22.45;;;;;;;;;;5014225;28;20427;-52
2021/03/20 09:46:24;;;;;;;37.92;22.98;;;;;;;;;;4991545;28;20037;-54
2021/03/20 09:48:50;;;;;;;40.85;23.60;;;;;;;;;;5014130;28;20060;-56
2021/03/20 09:51:34;;;;;;;35.72;21.15;;;;;;;;;;5013956;28;20428;-51
2021/03/20 09:54:20;;;;;;;34.97;20.55;;;;;;;;;;5013140;28;20038;-57
2021/03/20 09:56:47;;;;;;;37.35;23.25;;;;;;;;;;5012121;28;20033;-54
2021/03/20 09:59:33;;;;;;;42.95;24.17;;;;;;;;;;5013224;28;20034;-52
2021/03/20 10:02:04;;;;;;;35.28;20.73;;;;;;;;;;5013142;28;20014;-57
2021/03/20 10:04:35;;;;;;;33.65;19.60;;;;;;;;;;5013054;28;20397;-50
2021/03/20 10:07:20;;;;;;;35.72;21.05;;;;;;;;;;5012888;28;20053;-58
2021/03/20 10:09:57;;;;;;;37.90;21.48;;;;;;;;;;5013105;28;20064;-55
2021/03/20 10:12:28;;;;;;;41.75;24.50;;;;;;;;;;5012967;28;20034;-58
2021/03/20 10:15:17;;;;;;;35.75;21.58;;;;;;;;;;5012792;28;20494;-53
2021/03/20 10:18:00;;;;;;;36.38;22.95;;;;;;;;;;5012666;28;20109;-57
2021/03/20 10:20:45;;;;;;;35.78;22.35;;;;;;;;;;5012730;28;20033;-54
2021/03/20 10:23:29;;;;;;;40.75;24.88;;;;;;;;;;5012562;28;20481;-56
2021/03/20 10:25:57;;;;;;;39.97;23.52;;;;;;;;;;5013309;28;20036;-55
2021/03/20 10:28:31;;;;;;;40.22;23.75;;;;;;;;;;5013252;28;20037;-57
2021/03/20 10:30:59;;;;;;;30.48;19.35;;;;;;;;;;5013076;28;20083;-57
2021/03/20 10:33:36;;;;;;;30.55;18.58;;;;;;;;;;5012005;28;20076;-57
2021/03/20 10:36:12;;;;;;;44.25;27.10;;;;;;;;;;5013013;28;20026;-52
2021/03/20 10:38:39;;;;;;;40.10;25.83;;;;;;;;;;5013035;28;20382;-57
2021/03/20 10:41:05;;;;;;;37.17;21.90;;;;;;;;;;5012799;28;20057;-58
2021/03/20 10:43:33;;;;;;;32.70;20.70;;;;;;;;;;5012909;28;20026;-57
2021/03/20 10:46:00;;;;;;;37.45;22.50;;;;;;;;;;5013436;28;20045;-53
2021/03/20 10:48:28;;;;;;;29.48;18.67;;;;;;;;;;5012996;28;20105;-51
2021/03/20 10:51:08;;;;;;;37.25;22.25;;;;;;;;;;5013029;28;20117;-55
2021/03/20 10:53:39;;;;;;;34.05;21.63;;;;;;;;;;5012853;28;20038;-53
2021/03/20 10:56:05;;;;;;;39.67;24.27;;;;;;;;;;5012639;28;20026;-57
2021/03/20 10:58:42;;;;;;;40.35;23.50;;;;;;;;;;5012621;28;20033;-58
2021/03/20 11:01:09;;;;;;;38.97;22.55;;;;;;;;;;5012677;28;20018;-55
2021/03/20 11:03:39;;;;;;;35.50;21.45;;;;;;;;;;5012623;28;20071;-56
2021/03/20 11:06:13;;;;;;;33.72;19.20;;;;;;;;;;5012390;28;20477;-52
2021/03/20 11:08:40;;;;;;;41.67;22.67;;;;;;;;;;5012519;28;20022;-52
2021/03/20 11:11:26;;;;;;;44.08;22.73;;;;;;;;;;5012559;28;20025;-56
2021/03/20 11:13:53;;;;;;;39.88;22.33;;;;;;;;;;5012396;28;20042;-57
2021/03/20 11:16:19;;;;;;;50.35;27.73;;;;;;;;;;5012299;28;20024;-54
2021/03/20 11:18:50;;;;;;;44.85;23.98;;;;;;;;;;5012332;28;20090;-56
2021/03/20 11:21:18;;;;;;;35.65;21.80;;;;;;;;;;5012257;28;20122;-55
2021/03/20 11:23:44;;;;;;;32.97;20.15;;;;;;;;;;5012287;28;20381;-55
2021/03/20 11:26:12;;;;;;;33.65;19.90;;;;;;;;;;5012112;28;20056;-55
2021/03/20 11:28:39;;;;;;;32.80;20.08;;;;;;;;;;5012414;28;20042;-52
2021/03/20 11:31:06;;;;;;;36.10;20.52;;;;;;;;;;5012153;28;20465;-53
2021/03/20 11:33:35;;;;;;;43.45;24.58;;;;;;;;;;5012106;28;20041;-51
2021/03/20 11:36:08;;;;;;;49.28;26.20;;;;;;;;;;5012054;28;20026;-55
2021/03/20 11:38:35;;;;;;;37.53;21.95;;;;;;;;;;5012105;28;20025;-55
2021/03/20 11:41:04;;;;;;;45.53;24.17;;;;;;;;;;5011848;28;20117;-53
2021/03/20 11:43:39;;;;;;;48.47;26.73;;;;;;;;;;5011629;28;20087;-55
2021/03/20 11:46:12;;;;;;;45.08;23.63;;;;;;;;;;5011885;28;20109;-55
2021/03/20 11:48:42;;;;;;;50.85;27.38;;;;;;;;;;5011923;28;20065;-55
2021/03/20 11:51:16;;;;;;;56.85;30.15;;;;;;;;;;5011877;28;20026;-55
2021/03/20 11:53:50;;;;;;;49.10;28.50;;;;;;;;;;5012012;28;20087;-57
2021/03/20 11:56:18;;;;;;;48.05;25.55;;;;;;;;;;5011896;28;20460;-56
2021/03/20 11:58:55;;;;;;;49.67;29.15;;;;;;;;;;5012024;28;20028;-58
2021/03/20 12:01:25;;;;;;;40.95;23.92;;;;;;;;;;5011752;28;20030;-54
2021/03/20 12:03:51;;;;;;;34.03;21.65;;;;;;;;;;5011682;28;20034;-50
2021/03/20 12:06:17;;;;;;;41.03;23.92;;;;;;;;;;5011595;28;20038;-54
2021/03/20 12:08:44;;;;;;;41.15;25.45;;;;;;;;;;5011726;28;20030;-55
2021/03/20 12:11:12;;;;;;;52.00;30.27;;;;;;;;;;4993978;28;20041;-55
2021/03/20 12:13:49;;;;;;;45.17;26.58;;;;;;;;;;5011539;28;20482;-55
2021/03/20 12:16:43;;;;;;;49.10;28.63;;;;;;;;;;5011634;28;20014;-50
2021/03/20 12:19:09;;;;;;;;;;;;;;;;;;5010502;28;20042;-57
2021/03/20 12:21:53;;;;;;;42.92;24.83;;;;;;;;;;5011645;28;19905;-54
2021/03/20 12:24:21;;;;;;;42.88;26.67;;;;;;;;;;5011576;28;20469;-51
2021/03/20 12:26:47;;;;;;;40.65;23.80;;;;;;;;;;5011181;28;20026;-55
2021/03/20 12:29:16;;;;;;;36.95;22.15;;;;;;;;;;5011496;28;20022;-54
2021/03/20 12:31:42;;;;;;;36.15;21.58;;;;;;;;;;5011538;28;20037;-54
2021/03/20 12:34:08;;;;;;;34.03;20.58;;;;;;;;;;5011316;28;20093;-52
2021/03/20 12:36:45;;;;;;;39.70;22.88;;;;;;;;;;5011457;28;20033;-56
2021/03/20 12:39:11;;;;;;;38.58;23.15;;;;;;;;;;5011625;28;20496;-51
2021/03/20 12:41:40;;;;;;;35.85;20.83;;;;;;;;;;5011205;28;20034;-55
2021/03/20 12:44:17;;;;;;;28.20;16.48;;;;;;;;;;5011601;28;20040;-56
2021/03/20 12:46:44;;;;;;;29.33;18.58;;;;;;;;;;5011340;28;20080;-52
2021/03/20 12:49:15;;;;;;;27.30;17.40;;;;;;;;;;5011311;28;20049;-56
2021/03/20 12:51:41;;;;;;;33.20;21.10;;;;;;;;;;5011307;28;20022;-55
2021/03/20 12:54:07;;;;;;;32.80;19.67;;;;;;;;;;4993533;28;20034;-56
2021/03/20 12:56:33;;;;;;;34.58;21.45;;;;;;;;;;5013160;28;20385;-55
2021/03/20 12:58:59;;;;;;;36.10;22.10;;;;;;;;;;5015020;28;20428;-52
2021/03/20 13:01:25;;;;;;;28.52;18.15;;;;;;;;;;5014850;28;20025;-55
2021/03/20 13:03:51;;;;;;;24.42;16.48;;;;;;;;;;5014620;28;20018;-54
2021/03/20 13:06:18;;;;;;;30.42;19.25;;;;;;;;;;5014576;28;20054;-55
2021/03/20 13:08:44;;;;;;;33.13;20.13;;;;;;;;;;5014732;28;20026;-55
2021/03/20 13:11:20;;;;;;;32.28;20.08;;;;;;;;;;5014665;28;20072;-55
2021/03/20 13:13:46;;;;;;;37.25;20.75;;;;;;;;;;5014535;28;20038;-53
2021/03/20 13:16:12;;;;;;;38.85;21.80;;;;;;;;;;5014539;28;20080;-55
2021/03/20 13:18:38;;;;;;;31.52;19.13;;;;;;;;;;5014504;28;20482;-58
2021/03/20 13:21:05;;;;;;;28.38;17.13;;;;;;;;;;5014551;28;20108;-56
2021/03/20 13:23:31;;;;;;;27.80;17.95;;;;;;;;;;5014534;28;20025;-56
2021/03/20 13:25:57;;;;;;;32.92;19.98;;;;;;;;;;5014357;28;20032;-56
2021/03/20 13:28:23;;;;;;;31.17;19.48;;;;;;;;;;5014177;28;20029;-54
2021/03/20 13:30:49;;;;;;;32.33;19.10;;;;;;;;;;5014231;28;20044;-57
2021/03/20 13:33:15;;;;;;;37.05;22.55;;;;;;;;;;5014178;28;20042;-56
2021/03/20 13:35:44;;;;;;;43.17;24.38;;;;;;;;;;5014272;28;20029;-52
2021/03/20 13:38:10;;;;;;;35.60;20.77;;;;;;;;;;5014151;28;20025;-54
2021/03/20 13:40:37;;;;;;;32.60;19.58;;;;;;;;;;5014499;28;20431;-54
2021/03/20 13:43:03;;;;;;;26.67;17.55;;;;;;;;;;5014319;28;20037;-53
2021/03/20 13:45:30;;;;;;;28.10;17.23;;;;;;;;;;5014373;28;20087;-55
2021/03/20 13:47:56;;;;;;;25.95;16.63;;;;;;;;;;5015050;28;20028;-57
2021/03/20 13:50:23;;;;;;;32.78;20.13;;;;;;;;;;5014074;28;20076;-57
2021/03/20 13:52:50;;;;;;;30.60;19.08;;;;;;;;;;5014069;28;20085;-49
2021/03/20 13:55:16;;;;;;;29.42;18.13;;;;;;;;;;5014209;28;20022;-55
2021/03/20 13:57:42;;;;;;;29.33;17.75;;;;;;;;;;5013664;28;20056;-56
2021/03/20 14:00:09;;;;;;;24.77;14.95;;;;;;;;;;5013796;28;20076;-56
2021/03/20 14:02:35;;;;;;;20.95;13.00;;;;;;;;;;5013848;28;20113;-55
2021/03/20 14:05:01;;;;;;;20.85;13.07;;;;;;;;;;5013944;28;20042;-58
2021/03/20 14:07:29;;;;;;;22.75;14.95;;;;;;;;;;5013296;28;20050;-52
2021/03/20 14:09:56;;;;;;;24.00;15.68;;;;;;;;;;5013479;28;20477;-57
2021/03/20 14:12:22;;;;;;;25.90;16.45;;;;;;;;;;5013633;28;20080;-54
2021/03/20 14:14:49;;;;;;;25.05;16.13;;;;;;;;;;5013430;28;20045;-53
2021/03/20 14:17:16;;;;;;;22.73;14.85;;;;;;;;;;5013469;28;20381;-55
2021/03/20 14:19:42;;;;;;;24.02;16.45;;;;;;;;;;5013469;28;20033;-52
2021/03/20 14:22:08;;;;;;;28.80;19.15;;;;;;;;;;5013611;28;20057;-53
2021/03/20 14:24:35;;;;;;;24.60;16.83;;;;;;;;;;5013512;28;20026;-54
2021/03/20 14:27:01;;;;;;;28.50;18.27;;;;;;;;;;5013248;28;20014;-56
2021/03/20 14:29:27;;;;;;;28.33;19.58;;;;;;;;;;5013200;28;20022;-56
2021/03/20 14:31:54;;;;;;;28.75;18.95;;;;;;;;;;5013163;28;20520;-52
2021/03/20 14:34:20;;;;;;;25.63;17.15;;;;;;;;;;5013059;28;20137;-57
2021/03/20 14:36:47;;;;;;;31.98;19.30;;;;;;;;;;5013153;28;20220;-56
2021/03/20 14:39:13;;;;;;;34.22;20.17;;;;;;;;;;5013020;28;20033;-55
2021/03/20 14:41:39;;;;;;;34.63;20.33;;;;;;;;;;5013098;28;20029;-57
2021/03/20 14:44:06;;;;;;;27.67;17.58;;;;;;;;;;5013015;28;20025;-53